Time;durP1;ratioP1;P1;durP2;ratioP2;P2;SDS_P1;SDS_P2;PMS_P1;PMS_P2;Temp;Humidity;BMP_temperature;BMP_pressure;BME280_temperature;BME280_humidity;BME280_pressure;Samples;Min_cycle;Max_cycle;Signal;HPM_P1;HPM_P2
2022/09/05 00:00:07;;;;;;;1.17;1.00;;;;;;;;;;5011857;28;19906;-42
2022/09/05 00:02:33;;;;;;;3.10;1.33;;;;;;;;;;5012256;28;20058;-48
2022/09/05 00:04:59;;;;;;;1.40;1.00;;;;;;;;;;5006685;28;20058;-42
2022/09/05 00:07:34;;;;;;;1.05;0.93;;;;;;;;;;4992789;28;20045;-43
2022/09/05 00:10:06;;;;;;;2.45;1.00;;;;;;;;;;4991466;28;20105;-42
2022/09/05 00:12:34;;;;;;;2.28;1.30;;;;;;;;;;4992677;28;20026;-42
2022/09/05 00:15:11;;;;;;;1.25;1.02;;;;;;;;;;4991821;28;20040;-42
2022/09/05 00:17:56;;;;;;;1.05;0.95;;;;;;;;;;4992576;28;20038;-46
2022/09/05 00:20:40;;;;;;;1.17;1.00;;;;;;;;;;4992543;28;20026;-42
2022/09/05 00:23:32;;;;;;;0.95;0.80;;;;;;;;;;4992584;28;20034;-42
2022/09/05 00:25:58;;;;;;;;;;;;;;;;;;4969157;28;20046;-43
2022/09/05 00:28:40;;;;;;;1.98;1.02;;;;;;;;;;4992602;28;20274;-43
2022/09/05 00:31:18;;;;;;;1.13;0.95;;;;;;;;;;4993670;28;20081;-44
2022/09/05 00:34:02;;;;;;;2.42;1.00;;;;;;;;;;4995535;28;20392;-42
2022/09/05 00:36:39;;;;;;;1.30;1.08;;;;;;;;;;4996460;28;20034;-42
2022/09/05 00:39:12;;;;;;;2.17;1.02;;;;;;;;;;4995811;28;20052;-46
2022/09/05 00:41:39;;;;;;;1.83;1.00;;;;;;;;;;4996544;28;20022;-47
2022/09/05 00:44:05;;;;;;;1.73;1.10;;;;;;;;;;4995750;28;20030;-43
2022/09/05 00:46:33;;;;;;;1.55;1.10;;;;;;;;;;4995911;28;20439;-45
2022/09/05 00:49:11;;;;;;;1.10;0.80;;;;;;;;;;4995202;28;20026;-44
2022/09/05 00:51:58;;;;;;;1.80;1.02;;;;;;;;;;4996070;28;20476;-44
2022/09/05 00:54:24;;;;;;;1.27;1.10;;;;;;;;;;4995790;28;20117;-44
2022/09/05 00:57:20;;;;;;;1.92;1.20;;;;;;;;;;4995191;28;20023;-44
2022/09/05 01:00:07;;;;;;;1.30;1.10;;;;;;;;;;4940138;28;20103;-49
2022/09/05 01:02:52;;;;;;;1.42;1.02;;;;;;;;;;4995779;28;20109;-46
2022/09/05 01:05:33;;;;;;;1.67;1.02;;;;;;;;;;5002672;28;20033;-47
2022/09/05 01:08:08;;;;;;;1.13;1.03;;;;;;;;;;5014460;28;20061;-48
2022/09/05 01:10:53;;;;;;;1.40;1.05;;;;;;;;;;5015262;28;20061;-47
2022/09/05 01:13:31;;;;;;;1.23;1.00;;;;;;;;;;5015344;28;20026;-44
2022/09/05 01:16:04;;;;;;;2.75;1.00;;;;;;;;;;5014475;28;20026;-44
2022/09/05 01:18:54;;;;;;;1.00;0.90;;;;;;;;;;5015029;28;20053;-44
2022/09/05 01:21:22;;;;;;;1.05;0.88;;;;;;;;;;4978232;28;20034;-47
2022/09/05 01:23:51;;;;;;;1.42;1.00;;;;;;;;;;5014093;28;20029;-46
2022/09/05 01:26:20;;;;;;;1.38;1.20;;;;;;;;;;5015356;28;20463;-48
2022/09/05 01:28:46;;;;;;;1.40;1.05;;;;;;;;;;5014283;28;20026;-49
2022/09/05 01:31:18;;;;;;;1.92;1.38;;;;;;;;;;5014901;28;20109;-45
2022/09/05 01:33:59;;;;;;;1.33;0.95;;;;;;;;;;5014358;28;20029;-55
2022/09/05 01:36:45;;;;;;;2.80;1.00;;;;;;;;;;5014924;28;20029;-49
2022/09/05 01:39:15;;;;;;;2.08;1.10;;;;;;;;;;4974749;28;20045;-46
2022/09/05 01:41:47;;;;;;;1.52;1.00;;;;;;;;;;5014065;28;20024;-50
2022/09/05 01:44:13;;;;;;;;;;;;;;;;;;5015230;28;20108;-47
2022/09/05 01:46:43;;;;;;;1.63;1.00;;;;;;;;;;5014578;28;20440;-44
2022/09/05 01:49:13;;;;;;;1.88;1.13;;;;;;;;;;5014168;28;20030;-48
2022/09/05 01:51:54;;;;;;;1.08;0.90;;;;;;;;;;5014680;28;20022;-44
2022/09/05 01:54:29;;;;;;;1.57;1.07;;;;;;;;;;5014920;28;20117;-44
2022/09/05 01:57:18;;;;;;;1.40;0.98;;;;;;;;;;5013681;28;20038;-43
2022/09/05 01:59:53;;;;;;;2.10;1.20;;;;;;;;;;5014352;28;20124;-53
2022/09/05 02:02:38;;;;;;;1.85;1.27;;;;;;;;;;5014419;28;20042;-44
2022/09/05 02:05:13;;;;;;;1.30;0.90;;;;;;;;;;5008334;28;20033;-43
2022/09/05 02:07:59;;;;;;;1.73;1.17;;;;;;;;;;4994769;28;20026;-44
2022/09/05 02:10:31;;;;;;;1.33;1.13;;;;;;;;;;4995117;28;20074;-43
2022/09/05 02:13:15;;;;;;;1.42;0.82;;;;;;;;;;4993875;28;20030;-44
2022/09/05 02:15:46;;;;;;;1.88;1.10;;;;;;;;;;4994563;28;20026;-44
2022/09/05 02:18:22;;;;;;;1.48;1.00;;;;;;;;;;4994295;28;20066;-43
2022/09/05 02:20:52;;;;;;;1.35;1.10;;;;;;;;;;4993937;28;20026;-52
2022/09/05 02:23:19;;;;;;;2.55;1.48;;;;;;;;;;4994797;28;20476;-43
2022/09/05 02:25:45;;;;;;;1.00;0.80;;;;;;;;;;4994063;28;20030;-54
2022/09/05 02:28:23;;;;;;;1.75;1.27;;;;;;;;;;4993861;28;20487;-44
2022/09/05 02:30:51;;;;;;;1.20;1.00;;;;;;;;;;4993772;28;20088;-54
2022/09/05 02:33:17;;;;;;;2.13;1.30;;;;;;;;;;4994503;28;20101;-44
2022/09/05 02:35:50;;;;;;;1.55;1.10;;;;;;;;;;4993760;28;20057;-44
2022/09/05 02:38:34;;;;;;;1.48;1.05;;;;;;;;;;4985144;28;20106;-43
2022/09/05 02:41:04;;;;;;;1.02;0.93;;;;;;;;;;4981283;28;20495;-44
2022/09/05 02:43:36;;;;;;;1.40;1.10;;;;;;;;;;4982214;28;20435;-44
2022/09/05 02:46:08;;;;;;;2.58;1.05;;;;;;;;;;4981551;28;20034;-44
2022/09/05 02:48:57;;;;;;;1.52;1.08;;;;;;;;;;4982179;28;20030;-44
2022/09/05 02:51:34;;;;;;;1.58;1.10;;;;;;;;;;4982488;28;20019;-43
2022/09/05 02:54:21;;;;;;;1.20;0.90;;;;;;;;;;4980290;28;20371;-43
2022/09/05 02:56:50;;;;;;;2.13;1.10;;;;;;;;;;4983572;28;20030;-53
2022/09/05 02:59:34;;;;;;;1.67;1.20;;;;;;;;;;4981444;28;20022;-44
2022/09/05 03:02:04;;;;;;;2.78;1.08;;;;;;;;;;4973591;28;20110;-43
2022/09/05 03:04:48;;;;;;;2.92;1.00;;;;;;;;;;4974327;28;20035;-44
2022/09/05 03:07:20;;;;;;;1.60;1.48;;;;;;;;;;5013100;28;20459;-43
2022/09/05 03:09:46;;;;;;;;;;;;;;;;;;5013320;28;20082;-54
2022/09/05 03:12:30;;;;;;;1.58;0.93;;;;;;;;;;5012706;28;19905;-44
2022/09/05 03:15:14;;;;;;;1.67;1.20;;;;;;;;;;5012382;28;20022;-44
2022/09/05 03:17:43;;;;;;;1.23;0.90;;;;;;;;;;5012988;28;20026;-45
2022/09/05 03:20:28;;;;;;;2.53;1.30;;;;;;;;;;5012127;28;20101;-44
2022/09/05 03:23:12;;;;;;;1.63;1.00;;;;;;;;;;5012081;28;20037;-45
2022/09/05 03:25:57;;;;;;;1.25;1.02;;;;;;;;;;5012902;28;20026;-44
2022/09/05 03:28:41;;;;;;;1.20;0.90;;;;;;;;;;5012787;28;20088;-44
2022/09/05 03:31:17;;;;;;;2.00;1.27;;;;;;;;;;5012081;28;20450;-45
2022/09/05 03:33:45;;;;;;;1.35;1.00;;;;;;;;;;5012666;28;20036;-43
2022/09/05 03:36:43;;;;;;;1.17;1.08;;;;;;;;;;5011840;28;20022;-44
2022/09/05 03:39:19;;;;;;;1.10;1.00;;;;;;;;;;5011942;28;20025;-44
2022/09/05 03:42:03;;;;;;;2.45;1.13;;;;;;;;;;5012849;28;20064;-42
2022/09/05 03:44:48;;;;;;;1.30;1.00;;;;;;;;;;5012525;28;20374;-44
2022/09/05 03:47:34;;;;;;;1.38;1.00;;;;;;;;;;5012294;28;20040;-48
2022/09/05 03:50:19;;;;;;;1.55;1.10;;;;;;;;;;5011757;28;20423;-43
2022/09/05 03:53:05;;;;;;;1.30;1.20;;;;;;;;;;5012676;28;20076;-43
2022/09/05 03:55:40;;;;;;;1.48;1.17;;;;;;;;;;5012494;28;20029;-44
2022/09/05 03:58:09;;;;;;;1.52;0.98;;;;;;;;;;5011769;28;20531;-44
2022/09/05 04:00:38;;;;;;;1.45;1.05;;;;;;;;;;5012439;28;20097;-43
2022/09/05 04:03:04;;;;;;;1.35;1.08;;;;;;;;;;5011666;28;20073;-43
2022/09/05 04:05:36;;;;;;;1.20;1.02;;;;;;;;;;5002976;28;20038;-44
2022/09/05 04:08:24;;;;;;;1.10;1.00;;;;;;;;;;4991914;28;20112;-43
2022/09/05 04:10:56;;;;;;;1.52;1.00;;;;;;;;;;4992898;28;20388;-53
2022/09/05 04:13:22;;;;;;;;;;;;;;;;;;4993110;28;20085;-46
2022/09/05 04:15:58;;;;;;;1.20;1.10;;;;;;;;;;4992622;28;19910;-43
2022/09/05 04:18:28;;;;;;;1.75;0.90;;;;;;;;;;4992411;28;20480;-45
2022/09/05 04:21:01;;;;;;;1.27;1.00;;;;;;;;;;4992062;28;20480;-54
2022/09/05 04:23:46;;;;;;;1.88;1.00;;;;;;;;;;4992820;28;20018;-43
2022/09/05 04:26:24;;;;;;;2.17;1.00;;;;;;;;;;4991723;28;20066;-44
2022/09/05 04:28:58;;;;;;;2.10;1.10;;;;;;;;;;4992508;28;20026;-44
2022/09/05 04:31:30;;;;;;;1.42;1.10;;;;;;;;;;4992591;28;20105;-43
2022/09/05 04:34:20;;;;;;;1.40;1.00;;;;;;;;;;4991726;28;20498;-44
2022/09/05 04:36:47;;;;;;;1.75;1.05;;;;;;;;;;4959773;28;20051;-49
2022/09/05 04:39:19;;;;;;;1.40;1.10;;;;;;;;;;4991682;28;20102;-44
2022/09/05 04:41:53;;;;;;;1.80;1.00;;;;;;;;;;4992528;28;20031;-46
2022/09/05 04:44:25;;;;;;;1.60;1.20;;;;;;;;;;4974673;28;20026;-43
2022/09/05 04:46:51;;;;;;;;;;;;;;;;;;4992820;28;20112;-44
2022/09/05 04:49:25;;;;;;;1.77;1.00;;;;;;;;;;4991493;28;19945;-43
2022/09/05 04:52:02;;;;;;;1.58;1.23;;;;;;;;;;4992326;28;20379;-44
2022/09/05 04:54:28;;;;;;;1.52;1.23;;;;;;;;;;4992079;28;20037;-44
2022/09/05 04:56:57;;;;;;;1.80;1.17;;;;;;;;;;4992045;28;20030;-53
2022/09/05 04:59:31;;;;;;;2.30;1.17;;;;;;;;;;4992186;28;20027;-45
2022/09/05 05:02:11;;;;;;;1.77;1.13;;;;;;;;;;4991767;28;20030;-54
2022/09/05 05:04:37;;;;;;;1.42;1.02;;;;;;;;;;4993330;28;20482;-43
2022/09/05 05:07:10;;;;;;;2.55;1.38;;;;;;;;;;5010896;28;20026;-49
2022/09/05 05:09:39;;;;;;;1.17;1.00;;;;;;;;;;5012013;28;20046;-43
2022/09/05 05:12:16;;;;;;;1.73;1.10;;;;;;;;;;5011015;28;20034;-43
2022/09/05 05:14:45;;;;;;;3.40;1.70;;;;;;;;;;5011698;28;20030;-43
2022/09/05 05:17:33;;;;;;;3.00;1.00;;;;;;;;;;5012334;28;20534;-43
2022/09/05 05:20:05;;;;;;;1.23;1.13;;;;;;;;;;5014364;28;20570;-45
2022/09/05 05:22:31;;;;;;;1.65;1.05;;;;;;;;;;5015606;28;20108;-44
2022/09/05 05:24:57;;;;;;;1.10;1.00;;;;;;;;;;5014772;28;20427;-53
2022/09/05 05:27:25;;;;;;;1.65;1.00;;;;;;;;;;5015079;28;20026;-44
2022/09/05 05:29:56;;;;;;;1.23;1.13;;;;;;;;;;5014890;28;20018;-43
2022/09/05 05:32:22;;;;;;;;;;;;;;;;;;5015058;28;20036;-43
2022/09/05 05:34:53;;;;;;;2.15;1.00;;;;;;;;;;5014839;28;20405;-43
2022/09/05 05:37:19;;;;;;;2.97;0.98;;;;;;;;;;5013993;28;20395;-43
2022/09/05 05:39:47;;;;;;;1.92;1.30;;;;;;;;;;5014686;28;20022;-45
2022/09/05 05:42:15;;;;;;;0.88;0.80;;;;;;;;;;5014994;28;20022;-48
2022/09/05 05:44:46;;;;;;;1.40;1.20;;;;;;;;;;4997925;28;20116;-48
2022/09/05 05:47:19;;;;;;;2.63;1.00;;;;;;;;;;5013948;28;20056;-45
2022/09/05 05:49:52;;;;;;;1.75;1.33;;;;;;;;;;5014815;28;20103;-48
2022/09/05 05:52:30;;;;;;;15.38;1.85;;;;;;;;;;5014173;28;20024;-48
2022/09/05 05:54:56;;;;;;;19.75;2.80;;;;;;;;;;5014064;28;20038;-53
2022/09/05 05:57:33;;;;;;;52.50;11.30;;;;;;;;;;5014017;28;20022;-43
2022/09/05 06:00:02;;;;;;;39.90;8.60;;;;;;;;;;5013706;28;20370;-53
2022/09/05 06:02:28;;;;;;;20.85;4.93;;;;;;;;;;5014438;28;20112;-43
2022/09/05 06:04:57;;;;;;;10.35;3.45;;;;;;;;;;5002937;28;20108;-45
2022/09/05 06:07:33;;;;;;;6.63;2.75;;;;;;;;;;4996083;28;20068;-43
2022/09/05 06:10:11;;;;;;;9.15;3.13;;;;;;;;;;4985680;28;20113;-54
2022/09/05 06:13:00;;;;;;;12.23;3.13;;;;;;;;;;4993803;28;20033;-46
2022/09/05 06:15:39;;;;;;;15.95;3.47;;;;;;;;;;4991195;28;20054;-43
2022/09/05 06:18:13;;;;;;;12.25;2.75;;;;;;;;;;4994207;28;20025;-46
2022/09/05 06:20:39;;;;;;;10.77;2.65;;;;;;;;;;4994323;28;20070;-43
2022/09/05 06:23:05;;;;;;;4.30;2.30;;;;;;;;;;4993021;28;20034;-45
2022/09/05 06:25:31;;;;;;;6.18;2.30;;;;;;;;;;4993724;28;20034;-44
2022/09/05 06:27:57;;;;;;;6.40;2.67;;;;;;;;;;4993373;28;20093;-50
2022/09/05 06:30:24;;;;;;;4.82;2.30;;;;;;;;;;4993397;28;20093;-43
2022/09/05 06:32:50;;;;;;;6.90;2.45;;;;;;;;;;4993880;28;20371;-46
2022/09/05 06:35:34;;;;;;;5.63;2.88;;;;;;;;;;4992499;28;20026;-44
2022/09/05 06:38:10;;;;;;;4.90;2.10;;;;;;;;;;4993389;28;20033;-54
2022/09/05 06:40:41;;;;;;;4.32;1.90;;;;;;;;;;4993808;28;20097;-43
2022/09/05 06:43:11;;;;;;;4.10;2.10;;;;;;;;;;4993023;28;20022;-43
2022/09/05 06:45:56;;;;;;;4.05;2.20;;;;;;;;;;4993624;28;20371;-43
2022/09/05 06:48:28;;;;;;;6.05;2.63;;;;;;;;;;4992826;28;20129;-43
2022/09/05 06:51:03;;;;;;;6.70;2.70;;;;;;;;;;4982848;28;20054;-44
2022/09/05 06:53:38;;;;;;;8.63;2.42;;;;;;;;;;4993451;28;20034;-43
2022/09/05 06:56:04;;;;;;;9.68;2.50;;;;;;;;;;4992377;28;20490;-47
2022/09/05 06:58:54;;;;;;;4.18;1.98;;;;;;;;;;4993402;28;20113;-46
2022/09/05 07:01:26;;;;;;;2.75;2.30;;;;;;;;;;4984528;28;20029;-43
2022/09/05 07:04:02;;;;;;;3.58;2.08;;;;;;;;;;4992984;28;20130;-42
2022/09/05 07:06:47;;;;;;;5.50;2.25;;;;;;;;;;4996130;28;20061;-42
2022/09/05 07:09:31;;;;;;;3.35;1.80;;;;;;;;;;4993067;28;20042;-42
2022/09/05 07:11:57;;;;;;;4.30;2.25;;;;;;;;;;4992524;28;20353;-40
2022/09/05 07:14:41;;;;;;;3.33;2.03;;;;;;;;;;4991621;28;20115;-43
2022/09/05 07:17:15;;;;;;;3.80;2.38;;;;;;;;;;4990239;28;20026;-42
2022/09/05 07:19:42;;;;;;;6.18;2.60;;;;;;;;;;4991265;28;20038;-44
2022/09/05 07:22:23;;;;;;;9.93;3.75;;;;;;;;;;4991808;28;20026;-43
2022/09/05 07:24:51;;;;;;;4.43;2.30;;;;;;;;;;4992535;28;20472;-43
2022/09/05 07:27:36;;;;;;;8.02;1.83;;;;;;;;;;4983396;28;20026;-43
2022/09/05 07:30:03;;;;;;;3.53;2.30;;;;;;;;;;4991801;28;20038;-53
2022/09/05 07:32:31;;;;;;;4.00;1.73;;;;;;;;;;4990996;28;20038;-45
2022/09/05 07:34:58;;;;;;;5.43;2.38;;;;;;;;;;4987531;28;20692;-42
2022/09/05 07:37:34;;;;;;;2.58;1.67;;;;;;;;;;4993397;28;20364;-44
2022/09/05 07:40:08;;;;;;;2.75;1.80;;;;;;;;;;4993443;28;20030;-45
2022/09/05 07:42:37;;;;;;;5.35;2.10;;;;;;;;;;4991597;28;20372;-43
2022/09/05 07:45:09;;;;;;;4.38;1.90;;;;;;;;;;4991687;28;20037;-52
2022/09/05 07:47:35;;;;;;;;;;;;;;;;;;4992160;28;20084;-42
2022/09/05 07:50:11;;;;;;;5.22;2.15;;;;;;;;;;4992092;28;20011;-51
2022/09/05 07:52:39;;;;;;;5.75;2.28;;;;;;;;;;4991983;28;20031;-43
2022/09/05 07:55:20;;;;;;;4.78;1.75;;;;;;;;;;4991063;28;20026;-53
2022/09/05 07:57:46;;;;;;;3.90;2.10;;;;;;;;;;4990197;28;20076;-42
2022/09/05 08:00:20;;;;;;;7.45;2.40;;;;;;;;;;4990867;28;20490;-42
2022/09/05 08:02:46;;;;;;;6.53;2.10;;;;;;;;;;4993698;28;20030;-42
2022/09/05 08:05:18;;;;;;;5.90;2.45;;;;;;;;;;4996223;28;20032;-47
2022/09/05 08:07:47;;;;;;;5.93;2.45;;;;;;;;;;4991985;28;20023;-42
2022/09/05 08:10:13;;;;;;;4.03;1.60;;;;;;;;;;4990096;28;20053;-43
2022/09/05 08:12:47;;;;;;;30.55;4.30;;;;;;;;;;4991413;28;20034;-44
2022/09/05 08:15:17;;;;;;;10.68;2.47;;;;;;;;;;4990960;28;20396;-45
2022/09/05 08:18:01;;;;;;;10.93;2.10;;;;;;;;;;4991480;28;20113;-45
2022/09/05 08:20:30;;;;;;;4.78;2.42;;;;;;;;;;4991322;28;20026;-43
2022/09/05 08:23:16;;;;;;;3.97;1.92;;;;;;;;;;4991182;28;20042;-44
2022/09/05 08:25:52;;;;;;;3.72;2.20;;;;;;;;;;4961229;28;20050;-49
2022/09/05 08:28:22;;;;;;;3.80;1.92;;;;;;;;;;4990853;28;20032;-43
2022/09/05 08:31:14;;;;;;;5.28;2.10;;;;;;;;;;4989955;28;21508;-44
2022/09/05 08:33:42;;;;;;;3.28;1.75;;;;;;;;;;4985940;28;20031;-46
2022/09/05 08:36:11;;;;;;;6.18;1.80;;;;;;;;;;4991066;28;20023;-43
2022/09/05 08:38:39;;;;;;;3.63;1.70;;;;;;;;;;4984072;28;20033;-43
2022/09/05 08:41:24;;;;;;;4.55;1.40;;;;;;;;;;4987466;28;20035;-53
2022/09/05 08:43:50;;;;;;;3.58;1.55;;;;;;;;;;4991638;28;20037;-43
2022/09/05 08:46:25;;;;;;;3.03;1.40;;;;;;;;;;4982658;28;20026;-43
2022/09/05 08:49:10;;;;;;;3.78;1.58;;;;;;;;;;4990567;28;20117;-44
2022/09/05 08:51:42;;;;;;;2.17;1.35;;;;;;;;;;4992478;28;20034;-43
2022/09/05 08:54:11;;;;;;;2.42;1.45;;;;;;;;;;4992357;28;20455;-50
2022/09/05 08:56:37;;;;;;;3.33;1.55;;;;;;;;;;4995276;28;20053;-44
2022/09/05 08:59:22;;;;;;;2.75;1.33;;;;;;;;;;4993720;28;20031;-43
2022/09/05 09:01:51;;;;;;;1.58;1.20;;;;;;;;;;4995642;28;20026;-46
2022/09/05 09:04:24;;;;;;;2.85;1.40;;;;;;;;;;4988857;28;20115;-50
2022/09/05 09:06:58;;;;;;;4.65;1.50;;;;;;;;;;5004461;28;20033;-43
2022/09/05 09:09:34;;;;;;;5.05;1.30;;;;;;;;;;4995478;28;20708;-44
2022/09/05 09:12:08;;;;;;;2.28;1.45;;;;;;;;;;4983517;28;20045;-43
2022/09/05 09:14:40;;;;;;;3.03;1.58;;;;;;;;;;4994384;28;20105;-44
2022/09/05 09:17:27;;;;;;;4.82;1.50;;;;;;;;;;4993054;28;20030;-48
2022/09/05 09:20:10;;;;;;;2.10;1.40;;;;;;;;;;4996191;28;20073;-46
2022/09/05 09:22:51;;;;;;;2.00;1.30;;;;;;;;;;4994298;28;20085;-46
2022/09/05 09:25:22;;;;;;;2.50;1.52;;;;;;;;;;4986217;28;20472;-45
2022/09/05 09:27:48;;;;;;;;;;;;;;;;;;4994950;28;20497;-45
2022/09/05 09:30:15;;;;;;;2.72;1.70;;;;;;;;;;4992772;28;19974;-43
2022/09/05 09:33:05;;;;;;;3.63;1.40;;;;;;;;;;4993563;28;20034;-44
2022/09/05 09:35:31;;;;;;;2.47;1.63;;;;;;;;;;4980603;28;20058;-44
2022/09/05 09:38:06;;;;;;;2.47;1.58;;;;;;;;;;4993348;28;20026;-43
2022/09/05 09:40:35;;;;;;;3.25;1.75;;;;;;;;;;4994122;28;20034;-43
2022/09/05 09:43:21;;;;;;;3.20;1.40;;;;;;;;;;4994191;28;20089;-43
2022/09/05 09:45:54;;;;;;;2.72;1.38;;;;;;;;;;4994487;28;20084;-42
2022/09/05 09:48:23;;;;;;;1.70;1.40;;;;;;;;;;4993459;28;20030;-43
2022/09/05 09:50:49;;;;;;;2.50;1.40;;;;;;;;;;4994562;28;20037;-42
2022/09/05 09:53:33;;;;;;;4.05;1.50;;;;;;;;;;4993259;28;20034;-43
2022/09/05 09:56:14;;;;;;;2.95;1.40;;;;;;;;;;4987242;28;20534;-43
2022/09/05 09:58:39;;;;;;;3.45;1.58;;;;;;;;;;4993690;28;20038;-43
2022/09/05 10:01:12;;;;;;;2.78;1.42;;;;;;;;;;4993435;28;20034;-56
2022/09/05 10:03:57;;;;;;;1.70;1.30;;;;;;;;;;4993339;28;20483;-44
2022/09/05 10:06:32;;;;;;;5.47;2.67;;;;;;;;;;4997048;28;20060;-43
2022/09/05 10:09:17;;;;;;;3.58;1.63;;;;;;;;;;4993856;28;20038;-44
2022/09/05 10:11:48;;;;;;;2.50;1.02;;;;;;;;;;4994062;28;20031;-45
2022/09/05 10:14:32;;;;;;;3.42;1.65;;;;;;;;;;4992829;28;20065;-46
2022/09/05 10:17:17;;;;;;;2.67;1.98;;;;;;;;;;4994051;28;20182;-43
2022/09/05 10:19:45;;;;;;;4.35;2.05;;;;;;;;;;4994095;28;20032;-43
2022/09/05 10:22:29;;;;;;;3.42;1.40;;;;;;;;;;4986198;28;20048;-43
2022/09/05 10:25:01;;;;;;;1.98;1.17;;;;;;;;;;5000762;28;20034;-43
2022/09/05 10:27:42;;;;;;;2.83;1.70;;;;;;;;;;4990304;28;20042;-44
2022/09/05 10:30:19;;;;;;;5.13;1.70;;;;;;;;;;4990708;28;20048;-54
2022/09/05 10:32:53;;;;;;;3.85;1.80;;;;;;;;;;4990872;28;20062;-43
2022/09/05 10:35:36;;;;;;;4.45;1.65;;;;;;;;;;4998180;28;20029;-43
2022/09/05 10:38:03;;;;;;;2.88;1.55;;;;;;;;;;4995421;28;20046;-45
2022/09/05 10:40:32;;;;;;;8.98;2.30;;;;;;;;;;4991777;28;20839;-43
2022/09/05 10:43:01;;;;;;;1.77;1.40;;;;;;;;;;4991694;28;20038;-43
2022/09/05 10:45:43;;;;;;;2.70;1.40;;;;;;;;;;4991206;28;20041;-48
2022/09/05 10:48:27;;;;;;;5.13;2.10;;;;;;;;;;4990263;28;20075;-52
2022/09/05 10:50:59;;;;;;;2.40;1.50;;;;;;;;;;4992432;28;20046;-43
2022/09/05 10:53:25;;;;;;;2.00;1.70;;;;;;;;;;4988572;28;20040;-43
2022/09/05 10:55:52;;;;;;;2.17;1.50;;;;;;;;;;4992328;28;20451;-46
2022/09/05 10:58:32;;;;;;;2.67;1.83;;;;;;;;;;4985535;28;20046;-44
2022/09/05 11:01:04;;;;;;;2.60;1.45;;;;;;;;;;4992205;28;20100;-43
2022/09/05 11:04:01;;;;;;;2.85;1.30;;;;;;;;;;4981958;28;20128;-51
2022/09/05 11:06:48;;;;;;;3.33;1.40;;;;;;;;;;4944297;28;20063;-47
2022/09/05 11:09:33;;;;;;;2.03;1.65;;;;;;;;;;4975489;28;20383;-43
2022/09/05 11:12:04;;;;;;;1.77;1.60;;;;;;;;;;4993092;28;20086;-42
2022/09/05 11:14:34;;;;;;;3.08;1.60;;;;;;;;;;4991343;28;20030;-42
2022/09/05 11:17:15;;;;;;;4.85;2.45;;;;;;;;;;4992708;28;20026;-43
2022/09/05 11:19:47;;;;;;;1.83;1.40;;;;;;;;;;4992331;28;20360;-47
2022/09/05 11:22:14;;;;;;;3.03;1.50;;;;;;;;;;4991877;28;20046;-48
2022/09/05 11:24:54;;;;;;;3.90;1.58;;;;;;;;;;4992180;28;20022;-43
2022/09/05 11:27:42;;;;;;;3.83;1.30;;;;;;;;;;4991599;28;20038;-43
2022/09/05 11:30:21;;;;;;;6.68;1.80;;;;;;;;;;4989936;28;20038;-43
2022/09/05 11:32:56;;;;;;;2.58;1.50;;;;;;;;;;4991932;28;20026;-44
2022/09/05 11:35:24;;;;;;;3.28;1.48;;;;;;;;;;4991491;28;20030;-43
2022/09/05 11:37:53;;;;;;;2.33;1.42;;;;;;;;;;4992375;28;20383;-42
2022/09/05 11:40:52;;;;;;;4.38;1.92;;;;;;;;;;4991520;28;20068;-43
2022/09/05 11:43:23;;;;;;;2.97;1.35;;;;;;;;;;4948559;28;20365;-43
2022/09/05 11:45:49;;;;;;;;;;;;;;;;;;4987429;28;20038;-43
2022/09/05 11:48:15;;;;;;;2.05;1.23;;;;;;;;;;4992411;28;19983;-43
2022/09/05 11:50:56;;;;;;;1.88;1.42;;;;;;;;;;4992295;28;20030;-43
2022/09/05 11:53:40;;;;;;;10.73;2.63;;;;;;;;;;4991254;28;20490;-44
2022/09/05 11:56:25;;;;;;;2.58;1.30;;;;;;;;;;4992150;28;20031;-43
2022/09/05 11:59:03;;;;;;;2.47;1.33;;;;;;;;;;4992371;28;20117;-43
2022/09/05 12:01:54;;;;;;;3.33;1.58;;;;;;;;;;4991239;28;20045;-43
2022/09/05 12:04:33;;;;;;;2.38;1.30;;;;;;;;;;4991353;28;20028;-43
2022/09/05 12:07:14;;;;;;;3.58;1.60;;;;;;;;;;4987274;28;20522;-43
2022/09/05 12:09:59;;;;;;;2.28;1.20;;;;;;;;;;4984678;28;20070;-43
2022/09/05 12:12:25;;;;;;;1.85;1.20;;;;;;;;;;4991305;28;20034;-43
2022/09/05 12:14:54;;;;;;;1.85;1.40;;;;;;;;;;4991852;28;20030;-43
2022/09/05 12:17:28;;;;;;;2.22;1.23;;;;;;;;;;4990624;28;20022;-43
2022/09/05 12:19:59;;;;;;;1.50;1.20;;;;;;;;;;4992225;28;20027;-42
2022/09/05 12:22:36;;;;;;;1.10;1.00;;;;;;;;;;4991466;28;20015;-43
2022/09/05 12:25:21;;;;;;;1.60;1.25;;;;;;;;;;4984447;28;20026;-43
2022/09/05 12:27:50;;;;;;;1.98;1.10;;;;;;;;;;4995465;28;20484;-42
2022/09/05 12:30:37;;;;;;;1.20;1.10;;;;;;;;;;4995070;28;20022;-43
2022/09/05 12:33:11;;;;;;;1.17;1.02;;;;;;;;;;4995393;28;20022;-42
2022/09/05 12:35:40;;;;;;;2.15;1.20;;;;;;;;;;4995564;28;20038;-42
2022/09/05 12:38:09;;;;;;;2.58;1.48;;;;;;;;;;4996059;28;20030;-42
2022/09/05 12:40:41;;;;;;;1.73;1.10;;;;;;;;;;4994766;28;20027;-43
2022/09/05 12:43:07;;;;;;;;;;;;;;;;;;4996100;28;20038;-42
2022/09/05 12:45:46;;;;;;;1.35;1.13;;;;;;;;;;4995118;28;19971;-42
2022/09/05 12:48:30;;;;;;;1.45;1.33;;;;;;;;;;4994948;28;20038;-53
2022/09/05 12:50:59;;;;;;;2.85;1.67;;;;;;;;;;4995850;28;20054;-42
2022/09/05 12:53:34;;;;;;;1.30;1.00;;;;;;;;;;4994486;28;20621;-42
2022/09/05 12:56:02;;;;;;;2.90;1.20;;;;;;;;;;4995914;28;20037;-42
2022/09/05 12:58:29;;;;;;;2.08;1.30;;;;;;;;;;4994280;28;20026;-43
2022/09/05 13:01:16;;;;;;;1.45;1.10;;;;;;;;;;4995809;28;20030;-42
2022/09/05 13:04:00;;;;;;;3.55;1.35;;;;;;;;;;4994299;28;20029;-44
2022/09/05 13:06:45;;;;;;;1.55;1.10;;;;;;;;;;5000503;28;20068;-42
2022/09/05 13:09:22;;;;;;;3.13;1.40;;;;;;;;;;4988514;28;20058;-51
2022/09/05 13:11:48;;;;;;;1.48;1.20;;;;;;;;;;4995445;28;20073;-42
2022/09/05 13:14:19;;;;;;;2.33;1.83;;;;;;;;;;4993984;28;20093;-53
2022/09/05 13:16:46;;;;;;;1.90;1.15;;;;;;;;;;4994735;28;20022;-43
2022/09/05 13:19:23;;;;;;;2.75;1.25;;;;;;;;;;4994606;28;20080;-53
2022/09/05 13:21:51;;;;;;;1.60;1.20;;;;;;;;;;4994729;28;20460;-42
2022/09/05 13:24:40;;;;;;;2.22;1.40;;;;;;;;;;4993644;28;20487;-42
2022/09/05 13:27:17;;;;;;;1.63;1.50;;;;;;;;;;4994911;28;20396;-42
2022/09/05 13:29:50;;;;;;;3.38;1.40;;;;;;;;;;4994639;28;20027;-42
2022/09/05 13:32:29;;;;;;;1.42;1.10;;;;;;;;;;4992972;28;20026;-46
2022/09/05 13:34:57;;;;;;;2.10;1.40;;;;;;;;;;4988534;28;20030;-42
2022/09/05 13:37:28;;;;;;;4.45;1.25;;;;;;;;;;4991942;28;20030;-42
2022/09/05 13:39:58;;;;;;;2.15;1.70;;;;;;;;;;4994161;28;20061;-43
2022/09/05 13:42:26;;;;;;;1.55;1.23;;;;;;;;;;4991655;28;20176;-42
2022/09/05 13:44:54;;;;;;;2.65;1.60;;;;;;;;;;4994975;28;20034;-42
2022/09/05 13:47:39;;;;;;;3.63;1.42;;;;;;;;;;4994157;28;20026;-42
2022/09/05 13:50:23;;;;;;;2.00;1.20;;;;;;;;;;4975456;28;20027;-42
2022/09/05 13:52:54;;;;;;;1.92;1.50;;;;;;;;;;4975461;28;20041;-42
2022/09/05 13:55:20;;;;;;;;;;;;;;;;;;4975948;28;20062;-42
2022/09/05 13:57:49;;;;;;;1.98;0.90;;;;;;;;;;4975442;28;19906;-42
2022/09/05 14:00:17;;;;;;;1.88;1.40;;;;;;;;;;4979552;28;20109;-46
2022/09/05 14:02:52;;;;;;;1.27;1.08;;;;;;;;;;4992670;28;20081;-42
2022/09/05 14:05:25;;;;;;;2.33;1.38;;;;;;;;;;5000476;28;20120;-42
2022/09/05 14:08:16;;;;;;;2.22;1.30;;;;;;;;;;4997229;28;20102;-42
2022/09/05 14:10:52;;;;;;;1.42;1.10;;;;;;;;;;4993528;28;20046;-46
2022/09/05 14:13:28;;;;;;;1.23;1.13;;;;;;;;;;4989791;28;20169;-42
2022/09/05 14:15:59;;;;;;;1.85;1.20;;;;;;;;;;4994082;28;20398;-42
2022/09/05 14:21:14;;;;;;;1.30;1.10;;;;;;;;;;4993370;28;20050;-48
2022/09/05 14:21:26;;;;;;;1.60;1.25;;;;;;;;;;4986748;28;20476;-42
2022/09/05 14:23:55;;;;;;;1.17;1.08;;;;;;;;;;4993735;28;20440;-42
2022/09/05 14:26:21;;;;;;;1.50;1.20;;;;;;;;;;4992882;28;20033;-43
2022/09/05 14:29:01;;;;;;;1.48;1.10;;;;;;;;;;4993267;28;20027;-43
2022/09/05 14:31:31;;;;;;;1.45;1.20;;;;;;;;;;4992510;28;20101;-42
2022/09/05 14:34:09;;;;;;;1.30;1.13;;;;;;;;;;4994198;28;20032;-42
2022/09/05 14:36:35;;;;;;;2.45;1.13;;;;;;;;;;4990495;28;20281;-43
2022/09/05 14:39:13;;;;;;;1.23;1.08;;;;;;;;;;4993072;28;20109;-42
2022/09/05 14:41:39;;;;;;;1.48;1.38;;;;;;;;;;4993346;28;20022;-42
2022/09/05 14:44:28;;;;;;;1.50;1.30;;;;;;;;;;4993824;28;20113;-42
2022/09/05 14:46:54;;;;;;;1.52;1.42;;;;;;;;;;4947836;28;20089;-42
2022/09/05 14:49:36;;;;;;;2.05;1.40;;;;;;;;;;4992864;28;20058;-42
2022/09/05 14:52:03;;;;;;;;;;;;;;;;;;4988946;28;20033;-42
2022/09/05 14:54:37;;;;;;;1.90;0.98;;;;;;;;;;4992759;28;19906;-43
2022/09/05 14:57:04;;;;;;;1.63;1.25;;;;;;;;;;4993401;28;20092;-42
2022/09/05 14:59:31;;;;;;;1.75;1.20;;;;;;;;;;4992214;28;20026;-42
2022/09/05 15:02:18;;;;;;;1.52;1.23;;;;;;;;;;4993387;28;20349;-42
2022/09/05 15:04:48;;;;;;;1.27;1.17;;;;;;;;;;4995218;28;20550;-42
2022/09/05 15:07:19;;;;;;;3.08;1.30;;;;;;;;;;5012012;28;20490;-53
2022/09/05 15:09:45;;;;;;;1.10;1.00;;;;;;;;;;5012649;28;20050;-42
2022/09/05 15:12:17;;;;;;;1.65;1.38;;;;;;;;;;4993961;28;20069;-53
2022/09/05 15:14:59;;;;;;;2.53;1.30;;;;;;;;;;4993117;28;20117;-42
2022/09/05 15:17:26;;;;;;;1.77;1.15;;;;;;;;;;4991720;28;20467;-42
2022/09/05 15:20:07;;;;;;;1.23;1.13;;;;;;;;;;4992944;28;20061;-42
2022/09/05 15:22:40;;;;;;;1.73;1.20;;;;;;;;;;4992353;28;20034;-42
2022/09/05 15:25:13;;;;;;;1.40;1.13;;;;;;;;;;4991988;28;20038;-43
2022/09/05 15:27:39;;;;;;;1.52;1.30;;;;;;;;;;4993887;28;20037;-42
2022/09/05 15:30:06;;;;;;;1.83;1.40;;;;;;;;;;4993161;28;20030;-43